createdAt,value
2018-07-23T00:01:29.274Z,47.73
2018-07-23T00:04:11.058Z,49.87
2018-07-23T00:06:43.923Z,50.40
2018-07-23T00:09:18.275Z,46.70
2018-07-23T00:11:56.966Z,48.70
2018-07-23T00:14:26.562Z,49.83
2018-07-23T00:16:59.929Z,49.10
2018-07-23T00:19:28.654Z,49.60
2018-07-23T00:22:02.658Z,48.43
2018-07-23T00:24:31.418Z,47.20
2018-07-23T00:27:00.250Z,47.80
2018-07-23T00:29:29.130Z,51.03
2018-07-23T00:32:09.944Z,50.93
2018-07-23T00:34:42.770Z,47.20
2018-07-23T00:37:12.643Z,43.73
2018-07-23T00:39:41.454Z,42.37
2018-07-23T00:42:12.302Z,40.83
2018-07-23T00:44:41.065Z,41.37
2018-07-23T00:47:14.086Z,42.40
2018-07-23T00:49:47.178Z,45.77
2018-07-23T00:52:20.990Z,45.60
2018-07-23T00:55:09.046Z,45.33
2018-07-23T00:57:39.856Z,47.80
2018-07-23T01:00:14.717Z,48.70
2018-07-23T01:02:45.518Z,47.90
2018-07-23T01:05:19.217Z,47.83
2018-07-23T01:07:49.038Z,46.43
2018-07-23T01:10:19.857Z,48.67
2018-07-23T01:12:48.657Z,47.40
2018-07-23T01:15:17.670Z,49.03
2018-07-23T01:17:47.465Z,46.93
2018-07-23T01:20:27.953Z,46.30
2018-07-23T01:23:06.989Z,45.50
2018-07-23T01:25:35.845Z,43.93
2018-07-23T01:28:09.157Z,43.77
2018-07-23T01:30:38.941Z,43.37
2018-07-23T01:33:10.985Z,44.90
2018-07-23T01:35:40.734Z,46.00
2018-07-23T01:38:09.705Z,45.47
2018-07-23T01:40:42.607Z,46.00
2018-07-23T01:43:11.473Z,47.20
2018-07-23T01:45:41.297Z,46.13
2018-07-23T01:48:15.861Z,48.50
2018-07-23T01:50:45.741Z,49.50
2018-07-23T01:53:22.597Z,48.07
2018-07-23T01:56:08.864Z,49.93
2018-07-23T01:58:44.873Z,48.40
2018-07-23T02:01:14.725Z,51.17
2018-07-23T02:03:45.578Z,51.87
2018-07-23T02:06:16.378Z,49.73
2018-07-23T02:08:45.327Z,52.30
2018-07-23T02:11:15.174Z,52.30
2018-07-23T02:13:44.046Z,51.13
2018-07-23T02:16:12.830Z,50.90
2018-07-23T02:18:45.640Z,51.10
2018-07-23T02:21:14.529Z,51.73
2018-07-23T02:24:00.233Z,53.13
2018-07-23T02:26:32.113Z,54.40
2018-07-23T02:29:11.745Z,52.27
2018-07-23T02:31:40.550Z,57.07
2018-07-23T02:34:13.082Z,57.47
2018-07-23T02:36:51.625Z,53.67
2018-07-23T02:39:32.181Z,47.57
2018-07-23T02:42:02.990Z,45.90
2018-07-23T02:44:33.861Z,46.13
2018-07-23T02:47:15.431Z,53.93
2018-07-23T02:49:52.686Z,48.00
2018-07-23T02:52:25.354Z,50.30
2018-07-23T02:54:57.625Z,57.60
2018-07-23T02:57:32.781Z,59.90
2018-07-23T03:00:01.658Z,57.03
2018-07-23T03:02:34.946Z,54.00
2018-07-23T03:05:04.861Z,54.47
2018-07-23T03:07:35.745Z,59.63
2018-07-23T03:10:05.274Z,61.50
2018-07-23T03:12:34.082Z,64.97
2018-07-23T03:15:09.663Z,66.60
2018-07-23T03:17:43.700Z,66.37
2018-07-23T03:20:17.442Z,62.40
2018-07-23T03:22:46.241Z,57.87
2018-07-23T03:25:20.806Z,47.40
2018-07-23T03:27:52.725Z,48.20
2018-07-23T03:30:24.969Z,45.60
2018-07-23T03:32:54.765Z,46.43
2018-07-23T03:35:25.558Z,45.70
2018-07-23T03:37:57.522Z,45.33
2018-07-23T03:40:26.422Z,48.03
2018-07-23T03:42:55.353Z,50.13
2018-07-23T03:45:33.381Z,49.60
2018-07-23T03:48:13.605Z,49.90
2018-07-23T03:50:42.425Z,51.07
2018-07-23T03:53:18.305Z,49.87
2018-07-23T03:55:51.561Z,48.90
2018-07-23T03:58:20.366Z,49.07
2018-07-23T04:00:50.969Z,48.90
2018-07-23T04:03:20.738Z,48.63
2018-07-23T04:05:52.577Z,47.77
2018-07-23T04:08:22.369Z,51.30
2018-07-23T04:10:55.538Z,49.57
2018-07-23T04:13:27.750Z,52.30
2018-07-23T04:15:57.617Z,50.87
2018-07-23T04:18:28.502Z,51.20
2018-07-23T04:21:04.066Z,50.47
2018-07-23T04:23:36.690Z,54.77
2018-07-23T04:26:08.606Z,55.23
2018-07-23T04:28:48.030Z,54.60
2018-07-23T04:31:18.889Z,57.80
2018-07-23T04:33:48.823Z,58.10
2018-07-23T04:36:19.717Z,60.20
2018-07-23T04:38:56.793Z,55.77
2018-07-23T04:41:31.442Z,62.60
2018-07-23T04:44:00.286Z,65.30
2018-07-23T04:46:32.574Z,73.77
2018-07-23T04:49:06.349Z,70.70
2018-07-23T04:51:42.734Z,72.50
2018-07-23T04:54:16.249Z,66.50
2018-07-23T04:56:46.099Z,69.33
2018-07-23T04:59:19.022Z,70.47
2018-07-23T05:01:54.277Z,68.30
2018-07-23T05:04:23.157Z,68.50
2018-07-23T05:06:58.826Z,62.93
2018-07-23T05:09:28.849Z,65.17
2018-07-23T05:11:57.721Z,66.20
2018-07-23T05:14:32.369Z,62.10
2018-07-23T05:17:06.189Z,59.50
2018-07-23T05:19:42.646Z,61.23
2018-07-23T05:22:17.665Z,55.17
2018-07-23T05:24:57.543Z,53.10
2018-07-23T05:27:31.697Z,53.47
2018-07-23T05:30:00.557Z,51.50
2018-07-23T05:32:31.324Z,48.50
2018-07-23T05:35:08.253Z,44.37
2018-07-23T05:37:39.193Z,47.37
2018-07-23T05:40:12.885Z,44.27
2018-07-23T05:42:41.749Z,41.60
2018-07-23T05:45:11.596Z,41.47
2018-07-23T05:47:41.376Z,39.50
2018-07-23T05:50:10.369Z,39.90
2018-07-23T05:52:40.161Z,36.13
2018-07-23T05:55:09.821Z,33.80
2018-07-23T05:57:39.691Z,33.60
2018-07-23T06:00:09.437Z,30.90
2018-07-23T06:02:39.225Z,34.83
2018-07-23T06:05:09.801Z,32.53
2018-07-23T06:07:42.306Z,32.00
2018-07-23T06:10:14.981Z,30.97
2018-07-23T06:12:44.890Z,30.60
2018-07-23T06:15:13.637Z,31.50
2018-07-23T06:17:46.613Z,31.50
2018-07-23T06:20:15.485Z,30.17
2018-07-23T06:22:45.285Z,29.13
2018-07-23T06:25:15.092Z,28.47
2018-07-23T06:27:44.938Z,27.70
2018-07-23T06:30:15.931Z,27.47
2018-07-23T06:32:44.847Z,26.37
2018-07-23T06:35:14.653Z,23.87
2018-07-23T06:37:45.476Z,23.67
2018-07-23T06:40:17.532Z,21.03
2018-07-23T06:45:15.717Z,21.07
2018-07-23T06:47:46.536Z,23.07
2018-07-23T06:50:16.261Z,21.53
2018-07-23T06:52:56.174Z,20.17
2018-07-23T06:55:30.877Z,19.63
2018-07-23T06:57:59.676Z,18.43
2018-07-23T07:00:30.498Z,17.17
2018-07-23T07:02:59.352Z,16.30
2018-07-23T07:05:31.819Z,15.87
2018-07-23T07:08:01.580Z,15.50
2018-07-23T07:10:31.368Z,15.43
2018-07-23T07:13:07.028Z,16.23
2018-07-23T07:15:54.322Z,13.57
2018-07-23T07:18:27.356Z,14.60
2018-07-23T07:20:58.110Z,13.53
2018-07-23T07:23:27.960Z,15.33
2018-07-23T07:26:00.296Z,16.13
2018-07-23T07:28:32.069Z,14.60
2018-07-23T07:31:00.928Z,13.63
2018-07-23T07:33:31.700Z,13.80
2018-07-23T07:36:06.981Z,13.50
2018-07-23T07:38:35.745Z,13.50
2018-07-23T07:41:17.784Z,12.43
2018-07-23T07:43:48.600Z,10.80
2018-07-23T07:46:21.371Z,11.60
2018-07-23T07:49:07.097Z,12.23
2018-07-23T07:54:30.711Z,12.63
2018-07-23T07:56:59.509Z,11.87
2018-07-23T07:59:29.297Z,11.50
2018-07-23T08:02:15.809Z,11.53
2018-07-23T08:04:44.557Z,11.43
2018-07-23T08:07:19.186Z,11.20
2018-07-23T08:09:55.513Z,10.70
2018-07-23T08:12:25.294Z,9.50
2018-07-23T08:14:54.081Z,10.90
2018-07-23T08:17:24.909Z,10.50
2018-07-23T08:20:14.333Z,10.87
2018-07-23T08:22:47.821Z,10.67
2018-07-23T08:25:29.933Z,10.77
2018-07-23T08:27:58.789Z,11.13
2018-07-23T08:30:28.601Z,9.90
2018-07-23T08:32:59.397Z,11.10
2018-07-23T08:35:31.129Z,12.17
2018-07-23T08:38:00.866Z,12.90
2018-07-23T08:40:30.796Z,12.60
2018-07-23T08:43:00.617Z,11.83
2018-07-23T08:45:30.356Z,11.40
2018-07-23T08:48:06.809Z,11.33
2018-07-23T08:50:42.596Z,10.83
2018-07-23T08:53:16.048Z,10.70
2018-07-23T08:55:48.006Z,10.80
2018-07-23T08:58:17.728Z,10.13
2018-07-23T09:00:49.906Z,8.50
2018-07-23T09:03:19.708Z,9.33
2018-07-23T09:05:50.637Z,9.80
2018-07-23T09:08:19.406Z,9.70
2018-07-23T09:10:52.933Z,8.50
2018-07-23T09:13:24.869Z,8.30
2018-07-23T09:15:54.574Z,7.67
2018-07-23T09:18:30.090Z,7.97
2018-07-23T09:21:03.353Z,7.43
2018-07-23T09:23:32.245Z,9.00
2018-07-23T09:26:00.997Z,10.10
2018-07-23T09:28:30.801Z,9.70
2018-07-23T09:31:00.630Z,8.20
2018-07-23T09:33:30.321Z,8.50
2018-07-23T09:36:00.197Z,8.00
2018-07-23T09:38:29.941Z,8.70
2018-07-23T09:41:07.057Z,7.60
2018-07-23T09:43:46.725Z,7.33
2018-07-23T09:46:15.597Z,8.00
2018-07-23T09:48:44.393Z,7.63
2018-07-23T09:51:14.182Z,9.37
2018-07-23T09:56:42.437Z,7.40
2018-07-23T09:59:13.337Z,7.30
2018-07-23T10:01:47.756Z,7.70
2018-07-23T10:04:28.017Z,7.80
2018-07-23T10:06:58.724Z,8.37
2018-07-23T10:09:27.492Z,9.37
2018-07-23T10:11:56.301Z,9.53
2018-07-23T10:14:30.217Z,9.60
2018-07-23T10:17:02.805Z,8.23
2018-07-23T10:19:31.544Z,8.40
2018-07-23T10:22:02.428Z,8.30
2018-07-23T10:24:31.172Z,8.50
2018-07-23T10:27:04.109Z,9.20
2018-07-23T10:29:40.972Z,7.83
2018-07-23T10:32:10.992Z,7.80
2018-07-23T10:34:43.444Z,8.50
2018-07-23T10:37:12.164Z,8.57
2018-07-23T10:39:41.968Z,8.33
2018-07-23T10:42:10.718Z,9.20
2018-07-23T10:44:45.073Z,8.67
2018-07-23T10:47:16.952Z,8.67
2018-07-23T10:49:46.584Z,9.97
2018-07-23T10:52:15.405Z,8.27
2018-07-23T10:54:45.200Z,9.30
2018-07-23T11:00:13.657Z,9.87
2018-07-23T11:02:44.464Z,9.40
2018-07-23T11:05:13.008Z,9.97
2018-07-23T11:07:41.704Z,9.20
2018-07-23T11:10:20.360Z,8.03
2018-07-23T11:12:50.152Z,8.67
2018-07-23T11:15:23.536Z,9.93
2018-07-23T11:17:54.376Z,9.47
2018-07-23T11:20:25.196Z,9.03
2018-07-23T11:22:53.984Z,8.10
2018-07-23T11:25:40.899Z,9.30
2018-07-23T11:27:59.264Z,9.57
2018-07-23T11:30:30.004Z,9.47
2018-07-23T11:33:07.097Z,8.27
2018-07-23T11:35:41.656Z,8.13
2018-07-23T11:38:15.066Z,7.97
2018-07-23T11:40:49.045Z,8.63
2018-07-23T11:43:18.824Z,9.67
2018-07-23T11:46:06.649Z,9.13
2018-07-23T11:48:37.384Z,9.90
2018-07-23T11:51:12.281Z,9.00
2018-07-23T11:53:59.792Z,9.53
2018-07-23T11:56:28.412Z,10.20
2018-07-23T11:58:57.189Z,9.80
2018-07-23T12:01:25.977Z,9.57
2018-07-23T12:03:55.849Z,10.00
2018-07-23T12:06:25.673Z,10.00
2018-07-23T12:08:54.437Z,10.57
2018-07-23T12:11:28.021Z,10.00
2018-07-23T12:13:57.857Z,10.60
2018-07-23T12:16:27.637Z,9.70
2018-07-23T12:18:58.501Z,10.10
2018-07-23T12:21:27.413Z,9.03
2018-07-23T12:24:00.153Z,9.33
2018-07-23T12:26:29.957Z,8.53
2018-07-23T12:28:58.674Z,9.23
2018-07-23T12:31:29.397Z,9.70
2018-07-23T12:33:58.289Z,7.67
2018-07-23T12:36:31.066Z,8.07
2018-07-23T12:38:59.628Z,7.90
2018-07-23T12:41:29.288Z,6.80
2018-07-23T12:44:10.898Z,7.53
2018-07-23T12:46:39.840Z,7.60
2018-07-23T12:49:24.953Z,7.97
2018-07-23T12:51:53.801Z,7.77
2018-07-23T12:54:22.669Z,7.33
2018-07-23T12:56:55.548Z,8.20
2018-07-23T12:59:29.426Z,7.70
2018-07-23T13:01:58.188Z,7.80
2018-07-23T13:04:27.984Z,7.73
2018-07-23T13:06:56.840Z,6.70
2018-07-23T13:09:29.900Z,6.50
2018-07-23T13:12:08.260Z,6.97
2018-07-23T13:14:37.116Z,8.00
2018-07-23T13:17:05.888Z,7.33
2018-07-23T13:19:35.712Z,7.43
2018-07-23T13:22:08.021Z,6.77
2018-07-23T13:24:47.140Z,6.20
2018-07-23T13:27:21.984Z,6.67
2018-07-23T13:29:56.808Z,7.80
2018-07-23T13:32:30.089Z,6.33
2018-07-23T13:35:02.339Z,6.77
2018-07-23T13:37:34.542Z,7.43
2018-07-23T13:40:04.348Z,7.80
2018-07-23T13:42:33.108Z,6.80
2018-07-23T13:45:02.848Z,8.00
2018-07-23T13:47:31.707Z,7.90
2018-07-23T13:50:19.272Z,7.80
2018-07-23T13:52:49.060Z,7.73
2018-07-23T13:55:21.048Z,6.93
2018-07-23T13:57:49.807Z,7.90
2018-07-23T14:00:22.636Z,7.57
2018-07-23T14:02:52.515Z,6.80
2018-07-23T14:05:27.607Z,7.37
2018-07-23T14:07:56.403Z,7.10
2018-07-23T14:10:28.947Z,7.57
2018-07-23T14:13:07.455Z,7.50
2018-07-23T14:15:40.764Z,6.87
2018-07-23T14:18:11.536Z,7.30
2018-07-23T14:20:40.376Z,7.67
2018-07-23T14:23:17.332Z,7.03
2018-07-23T14:25:51.856Z,6.97
2018-07-23T14:28:22.351Z,6.20
2018-07-23T14:30:51.008Z,6.53
2018-07-23T14:33:27.136Z,6.43
2018-07-23T14:35:56.051Z,6.67
2018-07-23T14:38:25.072Z,5.80
2018-07-23T14:40:57.268Z,5.73
2018-07-23T14:43:36.116Z,6.10
2018-07-23T14:46:26.091Z,5.40
2018-07-23T14:48:54.940Z,6.57
2018-07-23T14:51:23.695Z,5.93
2018-07-23T14:53:53.431Z,6.50
2018-07-23T14:56:28.615Z,5.93
2018-07-23T14:59:11.979Z,7.30
2018-07-23T15:01:43.851Z,6.67
2018-07-23T15:04:13.664Z,6.20
2018-07-23T15:06:43.403Z,6.30
2018-07-23T15:09:15.467Z,5.57
2018-07-23T15:11:46.219Z,5.83
2018-07-23T15:14:24.388Z,5.47
2018-07-23T15:16:54.141Z,5.57
2018-07-23T15:19:28.796Z,5.77
2018-07-23T15:21:57.686Z,6.00
2018-07-23T15:24:35.839Z,6.10
2018-07-23T15:27:10.356Z,6.37
2018-07-23T15:29:48.767Z,5.97
2018-07-23T15:32:28.132Z,5.27
2018-07-23T15:35:02.505Z,5.70
2018-07-23T15:37:31.311Z,7.03
2018-07-23T15:40:06.884Z,6.23
2018-07-23T15:42:39.115Z,7.00
2018-07-23T15:45:27.078Z,6.40
2018-07-23T15:47:55.832Z,7.10
2018-07-23T15:50:28.492Z,7.47
2018-07-23T15:53:12.200Z,7.63
2018-07-23T15:55:41.093Z,7.50
2018-07-23T15:58:09.945Z,7.60
2018-07-23T16:01:03.663Z,7.50
2018-07-23T16:03:38.400Z,7.20
2018-07-23T16:06:07.257Z,8.20
2018-07-23T16:08:42.140Z,7.77
2018-07-23T16:11:11.804Z,7.57
2018-07-23T16:13:52.928Z,7.10
2018-07-23T16:16:23.763Z,7.20
2018-07-23T16:18:52.483Z,7.10
2018-07-23T16:21:21.252Z,7.20
2018-07-23T16:24:01.124Z,7.00
2018-07-23T16:26:29.900Z,7.67
2018-07-23T16:29:18.603Z,7.13
2018-07-23T16:31:49.347Z,7.37
2018-07-23T16:34:27.755Z,7.40
2018-07-23T16:36:58.823Z,7.10
2018-07-23T16:39:35.455Z,8.13
2018-07-23T16:42:09.907Z,10.10
2018-07-23T16:44:39.679Z,8.13
2018-07-23T16:47:18.094Z,8.00
2018-07-23T16:52:44.015Z,7.97
2018-07-23T16:55:27.564Z,8.10
2018-07-23T16:57:56.428Z,7.87
2018-07-23T17:00:25.191Z,9.03
2018-07-23T17:02:54.003Z,8.90
2018-07-23T17:05:29.292Z,8.50
2018-07-23T17:08:01.611Z,8.90
2018-07-23T17:10:33.576Z,8.13
2018-07-23T17:13:07.111Z,8.77
2018-07-23T17:15:37.359Z,8.13
2018-07-23T17:18:05.730Z,8.50
2018-07-23T17:20:37.799Z,8.23
2018-07-23T17:23:09.819Z,8.40
2018-07-23T17:25:38.571Z,8.73
2018-07-23T17:28:08.331Z,8.47
2018-07-23T17:30:37.079Z,8.20
2018-07-23T17:33:06.815Z,8.53
2018-07-23T17:35:35.607Z,7.93
2018-07-23T17:38:04.380Z,8.50
2018-07-23T17:40:38.247Z,8.27
2018-07-23T17:43:12.491Z,9.00
2018-07-23T17:45:44.972Z,8.57
2018-07-23T17:48:17.535Z,9.00
2018-07-23T17:50:56.742Z,8.37
2018-07-23T17:53:25.563Z,8.87
2018-07-23T17:56:00.467Z,8.60
2018-07-23T17:58:36.273Z,9.07
2018-07-23T18:01:07.086Z,8.40
2018-07-23T18:03:36.901Z,8.13
2018-07-23T18:06:06.835Z,8.93
2018-07-23T18:08:35.690Z,8.53
2018-07-23T18:11:08.283Z,8.87
2018-07-23T18:13:38.083Z,8.63
2018-07-23T18:16:08.839Z,9.30
2018-07-23T18:18:37.659Z,8.80
2018-07-23T18:21:06.619Z,10.10
2018-07-23T18:23:39.319Z,9.27
2018-07-23T18:26:12.079Z,9.53
2018-07-23T18:28:54.036Z,10.30
2018-07-23T18:31:26.215Z,9.57
2018-07-23T18:33:59.267Z,10.67
2018-07-23T18:36:32.051Z,11.40
2018-07-23T18:39:02.982Z,11.37
2018-07-23T18:41:33.787Z,11.70
2018-07-23T18:44:02.679Z,10.93
2018-07-23T18:46:35.111Z,11.07
2018-07-23T18:49:54.860Z,12.00
2018-07-23T18:52:28.311Z,12.20
2018-07-23T18:55:04.076Z,12.80
2018-07-23T18:57:33.791Z,12.40
2018-07-23T19:00:02.744Z,12.07
2018-07-23T19:02:31.543Z,14.07
2018-07-23T19:05:12.975Z,14.53
2018-07-23T19:07:49.419Z,13.70
2018-07-23T19:10:18.886Z,13.47
2018-07-23T19:12:48.611Z,14.37
2018-07-23T19:15:18.415Z,15.23
2018-07-23T19:17:48.235Z,14.10
2018-07-23T19:20:17.081Z,15.30
2018-07-23T19:22:47.881Z,15.00
2018-07-23T19:25:18.703Z,14.80
2018-07-23T19:27:47.479Z,15.70
2018-07-23T19:30:22.628Z,15.17
2018-07-23T19:32:52.424Z,15.73
2018-07-23T19:35:22.328Z,16.43
2018-07-23T19:37:54.948Z,16.80
2018-07-23T19:40:23.843Z,16.07
2018-07-23T19:42:53.687Z,15.87
2018-07-23T19:45:24.467Z,16.20
2018-07-23T19:47:54.202Z,17.90
2018-07-23T19:50:22.806Z,17.70
2018-07-23T19:52:57.751Z,17.67
2018-07-23T19:55:27.619Z,18.40
2018-07-23T19:57:56.599Z,19.27
2018-07-23T20:00:28.807Z,18.67
2018-07-23T20:02:57.663Z,19.50
2018-07-23T20:05:26.563Z,19.53
2018-07-23T20:07:55.315Z,18.90
2018-07-23T20:10:27.207Z,18.70
2018-07-23T20:12:56.875Z,19.47
2018-07-23T20:15:29.824Z,20.90
2018-07-23T20:18:03.939Z,20.00
2018-07-23T20:20:43.918Z,19.87
2018-07-23T20:23:14.687Z,20.07
2018-07-23T20:25:44.499Z,20.10
2018-07-23T20:28:32.466Z,19.67
2018-07-23T20:31:09.363Z,21.07
2018-07-23T20:33:39.115Z,20.60
2018-07-23T20:36:13.799Z,20.70
2018-07-23T20:38:44.564Z,21.00
2018-07-23T20:41:14.411Z,21.17
2018-07-23T20:43:46.910Z,20.27
2018-07-23T20:46:16.707Z,22.30
2018-07-23T20:48:45.528Z,20.40
2018-07-23T20:51:27.256Z,21.50
2018-07-23T20:53:56.067Z,21.00
2018-07-23T20:56:24.963Z,20.23
2018-07-23T20:58:57.154Z,21.10
2018-07-23T21:01:26.007Z,21.10
2018-07-23T21:03:54.837Z,21.87
2018-07-23T21:06:25.686Z,21.17
2018-07-23T21:08:55.450Z,21.20
2018-07-23T21:11:24.328Z,21.03
2018-07-23T21:14:02.891Z,20.97
2018-07-23T21:16:38.755Z,20.80
2018-07-23T21:19:08.638Z,20.93
2018-07-23T21:21:39.410Z,21.00
2018-07-23T21:24:08.251Z,22.23
2018-07-23T21:26:38.064Z,21.77
2018-07-23T21:29:10.534Z,22.20
2018-07-23T21:31:40.366Z,21.50
2018-07-23T21:34:19.686Z,23.23
2018-07-23T21:36:58.858Z,21.40
2018-07-23T21:39:29.658Z,23.60
2018-07-23T21:41:58.507Z,22.80
2018-07-23T21:44:32.075Z,21.50
2018-07-23T21:47:00.950Z,22.23
2018-07-23T21:49:35.775Z,22.07
2018-07-23T21:52:20.785Z,23.60
2018-07-23T21:54:51.658Z,21.87
2018-07-23T21:57:21.498Z,22.60
2018-07-23T21:59:50.272Z,21.43
2018-07-23T22:02:19.159Z,23.83
2018-07-23T22:04:51.307Z,22.67
2018-07-23T22:07:21.119Z,23.90
2018-07-23T22:12:38.991Z,25.67
2018-07-23T22:15:11.823Z,25.30
2018-07-23T22:17:41.567Z,23.40
2018-07-23T22:20:18.678Z,23.67
2018-07-23T22:22:50.984Z,24.00
2018-07-23T22:25:20.842Z,22.40
2018-07-23T22:27:50.622Z,21.50
2018-07-23T22:30:20.552Z,24.13
2018-07-23T22:32:53.258Z,22.47
2018-07-23T22:35:24.075Z,23.00
2018-07-23T22:38:06.898Z,24.00
2018-07-23T22:40:48.343Z,21.83
2018-07-23T22:43:22.558Z,23.13
2018-07-23T22:45:56.516Z,23.60
2018-07-23T22:48:26.279Z,26.67
2018-07-23T22:51:02.798Z,23.07
2018-07-23T22:53:32.554Z,22.77
2018-07-23T22:58:55.854Z,23.67
2018-07-23T23:01:24.566Z,25.10
2018-07-23T23:03:53.418Z,25.10
2018-07-23T23:06:27.446Z,26.70
2018-07-23T23:08:56.062Z,25.50
2018-07-23T23:11:37.395Z,26.83
2018-07-23T23:14:09.486Z,24.67
2018-07-23T23:16:38.394Z,26.07
2018-07-23T23:19:07.943Z,25.00
2018-07-23T23:21:42.282Z,25.20
2018-07-23T23:24:17.539Z,29.27
2018-07-23T23:26:56.473Z,28.10
2018-07-23T23:29:26.274Z,25.37
2018-07-23T23:31:56.062Z,26.07
2018-07-23T23:34:25.878Z,25.50
2018-07-23T23:36:55.699Z,26.63
2018-07-23T23:39:30.318Z,25.93
2018-07-23T23:42:03.502Z,27.40
2018-07-23T23:44:35.487Z,26.37
2018-07-23T23:47:10.827Z,27.17
2018-07-23T23:49:43.598Z,26.07
2018-07-23T23:52:13.190Z,26.20
2018-07-23T23:54:47.658Z,26.93
2018-07-23T23:57:16.528Z,26.30
